sensor_id;sensor_type;location;lat;lon;timestamp;temperature;humidity
78992;DHT22;72820;44.838;37.674;2023-12-22T00:00:36;11.91;81.50
78992;DHT22;72820;44.838;37.674;2023-12-22T00:01:37;11.91;81.92
78992;DHT22;72820;44.838;37.674;2023-12-22T00:02:39;11.93;82.22
78992;DHT22;72820;44.838;37.674;2023-12-22T00:03:44;11.94;82.52
78992;DHT22;72820;44.838;37.674;2023-12-22T00:04:48;11.95;82.56
78992;DHT22;72820;44.838;37.674;2023-12-22T00:05:49;11.94;82.43
78992;DHT22;72820;44.838;37.674;2023-12-22T00:06:51;11.95;82.12
78992;DHT22;72820;44.838;37.674;2023-12-22T00:07:53;11.97;81.95
78992;DHT22;72820;44.838;37.674;2023-12-22T00:08:54;11.94;81.79
78992;DHT22;72820;44.838;37.674;2023-12-22T00:09:55;11.93;81.54
78992;DHT22;72820;44.838;37.674;2023-12-22T00:10:57;11.94;81.59
78992;DHT22;72820;44.838;37.674;2023-12-22T00:11:58;11.94;81.14
78992;DHT22;72820;44.838;37.674;2023-12-22T00:13:00;11.97;81.26
78992;DHT22;72820;44.838;37.674;2023-12-22T00:14:01;11.95;81.21
78992;DHT22;72820;44.838;37.674;2023-12-22T00:15:03;11.98;81.29
78992;DHT22;72820;44.838;37.674;2023-12-22T00:16:05;11.95;81.35
78992;DHT22;72820;44.838;37.674;2023-12-22T00:17:07;11.95;81.17
78992;DHT22;72820;44.838;37.674;2023-12-22T00:18:09;11.93;80.98
78992;DHT22;72820;44.838;37.674;2023-12-22T00:19:10;11.95;81.23
78992;DHT22;72820;44.838;37.674;2023-12-22T00:20:12;11.97;81.26
78992;DHT22;72820;44.838;37.674;2023-12-22T00:21:15;11.97;81.23
78992;DHT22;72820;44.838;37.674;2023-12-22T00:22:16;11.94;81.32
78992;DHT22;72820;44.838;37.674;2023-12-22T00:23:17;11.98;81.23
78992;DHT22;72820;44.838;37.674;2023-12-22T00:24:19;11.95;81.25
78992;DHT22;72820;44.838;37.674;2023-12-22T00:25:20;11.93;81.20
78992;DHT22;72820;44.838;37.674;2023-12-22T00:26:22;11.93;80.99
78992;DHT22;72820;44.838;37.674;2023-12-22T00:27:23;11.94;80.79
78992;DHT22;72820;44.838;37.674;2023-12-22T00:28:24;11.98;80.74
78992;DHT22;72820;44.838;37.674;2023-12-22T00:29:26;11.95;81.04
78992;DHT22;72820;44.838;37.674;2023-12-22T00:30:29;11.97;81.17
78992;DHT22;72820;44.838;37.674;2023-12-22T00:31:30;12.00;81.10
78992;DHT22;72820;44.838;37.674;2023-12-22T00:32:32;12.03;81.23
78992;DHT22;72820;44.838;37.674;2023-12-22T00:33:33;12.01;81.07
78992;DHT22;72820;44.838;37.674;2023-12-22T00:34:34;11.97;81.04
78992;DHT22;72820;44.838;37.674;2023-12-22T00:35:36;12.00;81.08
78992;DHT22;72820;44.838;37.674;2023-12-22T00:36:37;12.00;81.29
78992;DHT22;72820;44.838;37.674;2023-12-22T00:37:38;12.01;81.38
78992;DHT22;72820;44.838;37.674;2023-12-22T00:38:40;12.00;81.28
78992;DHT22;72820;44.838;37.674;2023-12-22T00:39:41;11.98;81.20
78992;DHT22;72820;44.838;37.674;2023-12-22T00:40:43;12.01;81.03
78992;DHT22;72820;44.838;37.674;2023-12-22T00:41:44;11.98;81.06
78992;DHT22;72820;44.838;37.674;2023-12-22T00:42:45;11.97;81.10
78992;DHT22;72820;44.838;37.674;2023-12-22T00:43:47;11.95;81.05
78992;DHT22;72820;44.838;37.674;2023-12-22T00:44:48;11.97;81.03
78992;DHT22;72820;44.838;37.674;2023-12-22T00:45:49;11.97;81.15
78992;DHT22;72820;44.838;37.674;2023-12-22T00:46:51;11.98;81.16
78992;DHT22;72820;44.838;37.674;2023-12-22T00:47:52;11.95;81.06
78992;DHT22;72820;44.838;37.674;2023-12-22T00:48:53;11.98;81.11
78992;DHT22;72820;44.838;37.674;2023-12-22T00:49:55;11.97;81.08
78992;DHT22;72820;44.838;37.674;2023-12-22T00:50:56;11.94;81.27
78992;DHT22;72820;44.838;37.674;2023-12-22T00:51:58;11.95;81.44
78992;DHT22;72820;44.838;37.674;2023-12-22T00:52:59;11.95;81.42
78992;DHT22;72820;44.838;37.674;2023-12-22T00:54:00;11.98;81.39
78992;DHT22;72820;44.838;37.674;2023-12-22T00:55:02;11.97;81.33
78992;DHT22;72820;44.838;37.674;2023-12-22T00:56:04;12.01;81.61
78992;DHT22;72820;44.838;37.674;2023-12-22T00:57:06;12.03;81.69
78992;DHT22;72820;44.838;37.674;2023-12-22T00:58:08;11.98;81.92
78992;DHT22;72820;44.838;37.674;2023-12-22T00:59:09;12.00;81.85
78992;DHT22;72820;44.838;37.674;2023-12-22T01:00:11;12.03;81.87
78992;DHT22;72820;44.838;37.674;2023-12-22T01:01:13;11.98;81.80
78992;DHT22;72820;44.838;37.674;2023-12-22T01:02:15;12.00;81.81
78992;DHT22;72820;44.838;37.674;2023-12-22T01:03:16;12.00;81.99
78992;DHT22;72820;44.838;37.674;2023-12-22T01:04:18;12.00;82.05
78992;DHT22;72820;44.838;37.674;2023-12-22T01:05:19;11.98;82.31
78992;DHT22;72820;44.838;37.674;2023-12-22T01:06:21;12.00;81.86
78992;DHT22;72820;44.838;37.674;2023-12-22T01:07:22;11.98;81.86
78992;DHT22;72820;44.838;37.674;2023-12-22T01:08:24;11.97;81.95
78992;DHT22;72820;44.838;37.674;2023-12-22T01:09:25;11.97;81.97
78992;DHT22;72820;44.838;37.674;2023-12-22T01:10:26;12.00;81.97
78992;DHT22;72820;44.838;37.674;2023-12-22T01:11:27;12.01;81.83
78992;DHT22;72820;44.838;37.674;2023-12-22T01:12:29;11.98;81.80
78992;DHT22;72820;44.838;37.674;2023-12-22T01:13:31;11.98;81.86
78992;DHT22;72820;44.838;37.674;2023-12-22T01:14:32;11.94;82.01
78992;DHT22;72820;44.838;37.674;2023-12-22T01:15:34;11.95;82.02
78992;DHT22;72820;44.838;37.674;2023-12-22T01:16:36;11.98;82.17
78992;DHT22;72820;44.838;37.674;2023-12-22T01:17:38;11.98;81.95
78992;DHT22;72820;44.838;37.674;2023-12-22T01:18:39;11.97;81.97
78992;DHT22;72820;44.838;37.674;2023-12-22T01:19:43;11.94;82.04
78992;DHT22;72820;44.838;37.674;2023-12-22T01:20:46;11.93;82.12
78992;DHT22;72820;44.838;37.674;2023-12-22T01:21:48;11.94;82.18
78992;DHT22;72820;44.838;37.674;2023-12-22T01:22:50;11.90;82.17
78992;DHT22;72820;44.838;37.674;2023-12-22T01:23:52;11.91;82.26
78992;DHT22;72820;44.838;37.674;2023-12-22T01:24:53;11.89;82.48
78992;DHT22;72820;44.838;37.674;2023-12-22T01:25:55;11.89;82.58
78992;DHT22;72820;44.838;37.674;2023-12-22T01:26:57;11.87;82.72
78992;DHT22;72820;44.838;37.674;2023-12-22T01:27:58;11.87;82.82
78992;DHT22;72820;44.838;37.674;2023-12-22T01:29:00;11.87;82.76
78992;DHT22;72820;44.838;37.674;2023-12-22T01:30:02;11.86;82.81
78992;DHT22;72820;44.838;37.674;2023-12-22T01:31:03;11.84;83.02
78992;DHT22;72820;44.838;37.674;2023-12-22T01:32:05;11.89;83.10
78992;DHT22;72820;44.838;37.674;2023-12-22T01:33:07;11.87;83.25
78992;DHT22;72820;44.838;37.674;2023-12-22T01:34:08;11.86;82.99
78992;DHT22;72820;44.838;37.674;2023-12-22T01:35:10;11.89;83.00
78992;DHT22;72820;44.838;37.674;2023-12-22T01:36:11;11.87;83.00
78992;DHT22;72820;44.838;37.674;2023-12-22T01:37:13;11.87;83.08
78992;DHT22;72820;44.838;37.674;2023-12-22T01:38:15;11.86;83.04
78992;DHT22;72820;44.838;37.674;2023-12-22T01:39:17;11.87;83.03
78992;DHT22;72820;44.838;37.674;2023-12-22T01:40:19;11.86;83.25
78992;DHT22;72820;44.838;37.674;2023-12-22T01:41:20;11.86;83.37
78992;DHT22;72820;44.838;37.674;2023-12-22T01:42:22;11.84;83.77
78992;DHT22;72820;44.838;37.674;2023-12-22T01:43:23;11.86;83.82
78992;DHT22;72820;44.838;37.674;2023-12-22T01:44:25;11.82;83.83
78992;DHT22;72820;44.838;37.674;2023-12-22T01:45:29;11.77;83.98
78992;DHT22;72820;44.838;37.674;2023-12-22T01:46:31;11.79;83.99
78992;DHT22;72820;44.838;37.674;2023-12-22T01:47:33;11.77;84.04
78992;DHT22;72820;44.838;37.674;2023-12-22T01:48:36;11.77;84.15
78992;DHT22;72820;44.838;37.674;2023-12-22T01:49:37;11.79;84.21
78992;DHT22;72820;44.838;37.674;2023-12-22T01:50:40;11.79;84.19
78992;DHT22;72820;44.838;37.674;2023-12-22T01:51:42;11.79;84.37
78992;DHT22;72820;44.838;37.674;2023-12-22T01:52:44;11.77;84.35
78992;DHT22;72820;44.838;37.674;2023-12-22T01:53:46;11.79;84.46
78992;DHT22;72820;44.838;37.674;2023-12-22T01:54:49;11.76;84.45
78992;DHT22;72820;44.838;37.674;2023-12-22T01:55:54;11.74;84.75
78992;DHT22;72820;44.838;37.674;2023-12-22T01:56:57;11.76;84.96
78992;DHT22;72820;44.838;37.674;2023-12-22T01:57:59;11.73;85.01
78992;DHT22;72820;44.838;37.674;2023-12-22T01:59:01;11.72;85.10
78992;DHT22;72820;44.838;37.674;2023-12-22T02:00:03;11.72;85.14
78992;DHT22;72820;44.838;37.674;2023-12-22T02:01:13;11.70;85.21
78992;DHT22;72820;44.838;37.674;2023-12-22T02:02:15;11.70;85.41
78992;DHT22;72820;44.838;37.674;2023-12-22T02:03:18;11.70;85.45
78992;DHT22;72820;44.838;37.674;2023-12-22T02:04:20;11.67;85.48
78992;DHT22;72820;44.838;37.674;2023-12-22T02:05:22;11.67;85.50
78992;DHT22;72820;44.838;37.674;2023-12-22T02:06:24;11.67;85.43
78992;DHT22;72820;44.838;37.674;2023-12-22T02:07:26;11.66;85.46
78992;DHT22;72820;44.838;37.674;2023-12-22T02:08:31;11.67;85.53
78992;DHT22;72820;44.838;37.674;2023-12-22T02:09:34;11.66;85.43
78992;DHT22;72820;44.838;37.674;2023-12-22T02:10:37;11.67;85.55
78992;DHT22;72820;44.838;37.674;2023-12-22T02:11:38;11.67;85.54
78992;DHT22;72820;44.838;37.674;2023-12-22T02:12:42;11.70;85.53
78992;DHT22;72820;44.838;37.674;2023-12-22T02:13:44;11.65;85.41
78992;DHT22;72820;44.838;37.674;2023-12-22T02:14:46;11.65;85.53
78992;DHT22;72820;44.838;37.674;2023-12-22T02:15:53;11.66;85.58
78992;DHT22;72820;44.838;37.674;2023-12-22T02:18:11;11.63;85.41
78992;DHT22;72820;44.838;37.674;2023-12-22T02:20:33;11.61;85.34
78992;DHT22;72820;44.838;37.674;2023-12-22T02:21:35;11.59;85.45
78992;DHT22;72820;44.838;37.674;2023-12-22T02:22:36;11.58;85.45
78992;DHT22;72820;44.838;37.674;2023-12-22T02:23:38;11.56;85.33
78992;DHT22;72820;44.838;37.674;2023-12-22T02:24:40;11.55;84.95
78992;DHT22;72820;44.838;37.674;2023-12-22T02:25:41;11.54;84.29
78992;DHT22;72820;44.838;37.674;2023-12-22T02:26:45;11.48;83.69
78992;DHT22;72820;44.838;37.674;2023-12-22T02:27:49;11.48;83.77
78992;DHT22;72820;44.838;37.674;2023-12-22T02:28:51;11.46;83.77
78992;DHT22;72820;44.838;37.674;2023-12-22T02:30:12;11.48;84.00
78992;DHT22;72820;44.838;37.674;2023-12-22T02:31:23;11.48;83.88
78992;DHT22;72820;44.838;37.674;2023-12-22T02:32:32;11.46;83.86
78992;DHT22;72820;44.838;37.674;2023-12-22T02:33:36;11.48;84.11
78992;DHT22;72820;44.838;37.674;2023-12-22T02:34:41;11.46;84.28
78992;DHT22;72820;44.838;37.674;2023-12-22T02:35:45;11.46;84.79
78992;DHT22;72820;44.838;37.674;2023-12-22T02:36:51;11.48;84.52
78992;DHT22;72820;44.838;37.674;2023-12-22T02:37:56;11.48;84.70
78992;DHT22;72820;44.838;37.674;2023-12-22T02:38:59;11.49;84.62
78992;DHT22;72820;44.838;37.674;2023-12-22T02:40:02;11.45;84.68
78992;DHT22;72820;44.838;37.674;2023-12-22T02:41:04;11.43;84.78
78992;DHT22;72820;44.838;37.674;2023-12-22T02:42:07;11.46;85.16
78992;DHT22;72820;44.838;37.674;2023-12-22T02:43:09;11.48;84.91
78992;DHT22;72820;44.838;37.674;2023-12-22T02:44:11;11.45;84.78
78992;DHT22;72820;44.838;37.674;2023-12-22T02:45:14;11.43;84.70
78992;DHT22;72820;44.838;37.674;2023-12-22T02:46:16;11.43;84.44
78992;DHT22;72820;44.838;37.674;2023-12-22T02:47:18;11.40;84.33
78992;DHT22;72820;44.838;37.674;2023-12-22T02:48:19;11.40;84.40
78992;DHT22;72820;44.838;37.674;2023-12-22T02:49:21;11.42;84.43
78992;DHT22;72820;44.838;37.674;2023-12-22T02:50:22;11.42;84.53
78992;DHT22;72820;44.838;37.674;2023-12-22T02:51:24;11.46;84.67
78992;DHT22;72820;44.838;37.674;2023-12-22T02:52:25;11.42;84.37
78992;DHT22;72820;44.838;37.674;2023-12-22T02:53:26;11.42;84.47
78992;DHT22;72820;44.838;37.674;2023-12-22T02:54:28;11.38;84.61
78992;DHT22;72820;44.838;37.674;2023-12-22T02:55:31;11.36;84.84
78992;DHT22;72820;44.838;37.674;2023-12-22T02:56:33;11.38;84.88
78992;DHT22;72820;44.838;37.674;2023-12-22T02:57:34;11.38;85.03
78992;DHT22;72820;44.838;37.674;2023-12-22T02:58:36;11.40;84.99
78992;DHT22;72820;44.838;37.674;2023-12-22T02:59:37;11.38;84.98
78992;DHT22;72820;44.838;37.674;2023-12-22T03:00:38;11.36;85.03
78992;DHT22;72820;44.838;37.674;2023-12-22T03:01:41;11.34;85.01
78992;DHT22;72820;44.838;37.674;2023-12-22T03:02:42;11.34;85.13
78992;DHT22;72820;44.838;37.674;2023-12-22T03:03:44;11.32;85.30
78992;DHT22;72820;44.838;37.674;2023-12-22T03:04:45;11.31;85.21
78992;DHT22;72820;44.838;37.674;2023-12-22T03:05:49;11.29;85.37
78992;DHT22;72820;44.838;37.674;2023-12-22T03:06:51;11.32;85.35
78992;DHT22;72820;44.838;37.674;2023-12-22T03:07:52;11.31;85.47
78992;DHT22;72820;44.838;37.674;2023-12-22T03:08:54;11.31;85.54
78992;DHT22;72820;44.838;37.674;2023-12-22T03:09:55;11.31;85.46
78992;DHT22;72820;44.838;37.674;2023-12-22T03:10:57;11.31;85.71
78992;DHT22;72820;44.838;37.674;2023-12-22T03:11:58;11.29;85.46
78992;DHT22;72820;44.838;37.674;2023-12-22T03:13:03;11.31;85.41
78992;DHT22;72820;44.838;37.674;2023-12-22T03:14:04;11.29;85.53
78992;DHT22;72820;44.838;37.674;2023-12-22T03:15:06;11.28;85.69
78992;DHT22;72820;44.838;37.674;2023-12-22T03:16:08;11.28;85.53
78992;DHT22;72820;44.838;37.674;2023-12-22T03:17:10;11.28;85.58
78992;DHT22;72820;44.838;37.674;2023-12-22T03:18:12;11.28;85.72
78992;DHT22;72820;44.838;37.674;2023-12-22T03:19:14;11.28;85.54
78992;DHT22;72820;44.838;37.674;2023-12-22T03:20:15;11.27;85.56
78992;DHT22;72820;44.838;37.674;2023-12-22T03:21:18;11.22;85.54
78992;DHT22;72820;44.838;37.674;2023-12-22T03:22:22;11.17;85.69
78992;DHT22;72820;44.838;37.674;2023-12-22T03:23:24;11.15;85.92
78992;DHT22;72820;44.838;37.674;2023-12-22T03:24:27;11.15;86.15
78992;DHT22;72820;44.838;37.674;2023-12-22T03:25:29;11.17;86.26
78992;DHT22;72820;44.838;37.674;2023-12-22T03:26:31;11.14;86.14
78992;DHT22;72820;44.838;37.674;2023-12-22T03:27:33;11.20;86.13
78992;DHT22;72820;44.838;37.674;2023-12-22T03:28:34;11.17;85.80
78992;DHT22;72820;44.838;37.674;2023-12-22T03:29:36;11.18;85.85
78992;DHT22;72820;44.838;37.674;2023-12-22T03:30:38;11.17;85.71
78992;DHT22;72820;44.838;37.674;2023-12-22T03:31:39;11.17;85.92
78992;DHT22;72820;44.838;37.674;2023-12-22T03:32:41;11.15;85.90
78992;DHT22;72820;44.838;37.674;2023-12-22T03:33:43;11.20;85.92
78992;DHT22;72820;44.838;37.674;2023-12-22T03:34:44;11.15;85.87
78992;DHT22;72820;44.838;37.674;2023-12-22T03:35:46;11.20;85.79
78992;DHT22;72820;44.838;37.674;2023-12-22T03:36:48;11.18;85.74
78992;DHT22;72820;44.838;37.674;2023-12-22T03:37:50;11.15;85.75
78992;DHT22;72820;44.838;37.674;2023-12-22T03:38:51;11.17;85.81
78992;DHT22;72820;44.838;37.674;2023-12-22T03:39:53;11.15;85.72
78992;DHT22;72820;44.838;37.674;2023-12-22T03:40:55;11.14;85.66
78992;DHT22;72820;44.838;37.674;2023-12-22T03:41:56;11.14;85.85
78992;DHT22;72820;44.838;37.674;2023-12-22T03:42:58;11.14;85.88
78992;DHT22;72820;44.838;37.674;2023-12-22T03:44:00;11.15;85.68
78992;DHT22;72820;44.838;37.674;2023-12-22T03:45:02;11.12;85.47
78992;DHT22;72820;44.838;37.674;2023-12-22T03:46:04;11.10;85.38
78992;DHT22;72820;44.838;37.674;2023-12-22T03:47:05;11.10;85.61
78992;DHT22;72820;44.838;37.674;2023-12-22T03:48:07;11.07;85.55
78992;DHT22;72820;44.838;37.674;2023-12-22T03:49:08;11.10;85.35
78992;DHT22;72820;44.838;37.674;2023-12-22T03:50:10;11.06;85.27
78992;DHT22;72820;44.838;37.674;2023-12-22T03:51:12;11.06;85.34
78992;DHT22;72820;44.838;37.674;2023-12-22T03:52:16;11.06;85.36
78992;DHT22;72820;44.838;37.674;2023-12-22T03:53:17;11.06;85.32
78992;DHT22;72820;44.838;37.674;2023-12-22T03:54:19;11.04;85.35
78992;DHT22;72820;44.838;37.674;2023-12-22T03:55:21;11.04;85.35
78992;DHT22;72820;44.838;37.674;2023-12-22T03:56:22;11.03;85.32
78992;DHT22;72820;44.838;37.674;2023-12-22T03:57:24;11.01;85.39
78992;DHT22;72820;44.838;37.674;2023-12-22T03:58:26;11.00;85.38
78992;DHT22;72820;44.838;37.674;2023-12-22T03:59:27;11.00;85.20
78992;DHT22;72820;44.838;37.674;2023-12-22T04:00:29;10.99;85.29
78992;DHT22;72820;44.838;37.674;2023-12-22T04:01:30;10.97;85.27
78992;DHT22;72820;44.838;37.674;2023-12-22T04:02:32;10.96;85.35
78992;DHT22;72820;44.838;37.674;2023-12-22T04:03:34;10.97;85.36
78992;DHT22;72820;44.838;37.674;2023-12-22T04:04:38;10.92;85.27
78992;DHT22;72820;44.838;37.674;2023-12-22T04:05:40;10.92;85.44
78992;DHT22;72820;44.838;37.674;2023-12-22T04:06:42;10.89;85.49
78992;DHT22;72820;44.838;37.674;2023-12-22T04:07:45;10.89;85.43
78992;DHT22;72820;44.838;37.674;2023-12-22T04:08:46;10.90;85.40
78992;DHT22;72820;44.838;37.674;2023-12-22T04:09:48;10.90;85.40
78992;DHT22;72820;44.838;37.674;2023-12-22T04:10:50;10.92;85.49
78992;DHT22;72820;44.838;37.674;2023-12-22T04:11:51;10.89;85.55
78992;DHT22;72820;44.838;37.674;2023-12-22T04:12:53;10.87;85.40
78992;DHT22;72820;44.838;37.674;2023-12-22T04:13:55;10.87;85.44
78992;DHT22;72820;44.838;37.674;2023-12-22T04:14:57;10.86;85.10
78992;DHT22;72820;44.838;37.674;2023-12-22T04:15:58;10.87;85.41
78992;DHT22;72820;44.838;37.674;2023-12-22T04:17:00;10.84;85.32
78992;DHT22;72820;44.838;37.674;2023-12-22T04:18:02;10.80;85.16
78992;DHT22;72820;44.838;37.674;2023-12-22T04:19:04;10.80;85.28
78992;DHT22;72820;44.838;37.674;2023-12-22T04:20:06;10.80;85.04
78992;DHT22;72820;44.838;37.674;2023-12-22T04:21:08;10.79;85.20
78992;DHT22;72820;44.838;37.674;2023-12-22T04:22:10;10.84;85.17
78992;DHT22;72820;44.838;37.674;2023-12-22T04:23:12;10.83;84.98
78992;DHT22;72820;44.838;37.674;2023-12-22T04:24:14;10.81;84.85
78992;DHT22;72820;44.838;37.674;2023-12-22T04:25:16;10.86;84.90
78992;DHT22;72820;44.838;37.674;2023-12-22T04:26:19;10.86;84.84
78992;DHT22;72820;44.838;37.674;2023-12-22T04:27:21;10.83;84.89
78992;DHT22;72820;44.838;37.674;2023-12-22T04:28:23;10.83;84.89
78992;DHT22;72820;44.838;37.674;2023-12-22T04:29:25;10.89;84.87
78992;DHT22;72820;44.838;37.674;2023-12-22T04:30:26;10.87;84.52
78992;DHT22;72820;44.838;37.674;2023-12-22T04:31:29;10.87;84.42
78992;DHT22;72820;44.838;37.674;2023-12-22T04:32:30;10.90;84.46
78992;DHT22;72820;44.838;37.674;2023-12-22T04:33:32;10.93;84.54
78992;DHT22;72820;44.838;37.674;2023-12-22T04:34:34;10.92;84.48
78992;DHT22;72820;44.838;37.674;2023-12-22T04:35:37;10.92;84.36
78992;DHT22;72820;44.838;37.674;2023-12-22T04:36:39;10.92;84.42
78992;DHT22;72820;44.838;37.674;2023-12-22T04:37:40;10.92;84.38
78992;DHT22;72820;44.838;37.674;2023-12-22T04:38:42;10.94;84.37
78992;DHT22;72820;44.838;37.674;2023-12-22T04:39:44;10.93;84.36
78992;DHT22;72820;44.838;37.674;2023-12-22T04:40:45;10.96;84.17
78992;DHT22;72820;44.838;37.674;2023-12-22T04:41:47;10.96;84.40
78992;DHT22;72820;44.838;37.674;2023-12-22T04:42:49;10.96;84.23
78992;DHT22;72820;44.838;37.674;2023-12-22T04:43:52;11.00;84.19
78992;DHT22;72820;44.838;37.674;2023-12-22T04:44:53;10.97;84.16
78992;DHT22;72820;44.838;37.674;2023-12-22T04:45:55;10.97;84.09
78992;DHT22;72820;44.838;37.674;2023-12-22T04:46:57;10.96;84.08
78992;DHT22;72820;44.838;37.674;2023-12-22T04:47:59;10.93;84.05
78992;DHT22;72820;44.838;37.674;2023-12-22T04:49:00;10.92;83.97
78992;DHT22;72820;44.838;37.674;2023-12-22T04:50:03;10.93;84.04
78992;DHT22;72820;44.838;37.674;2023-12-22T04:51:05;10.92;84.01
78992;DHT22;72820;44.838;37.674;2023-12-22T04:52:07;10.97;84.26
78992;DHT22;72820;44.838;37.674;2023-12-22T04:53:08;10.96;83.77
78992;DHT22;72820;44.838;37.674;2023-12-22T04:54:10;10.92;83.70
78992;DHT22;72820;44.838;37.674;2023-12-22T04:55:12;10.90;83.76
78992;DHT22;72820;44.838;37.674;2023-12-22T04:56:14;10.83;83.52
78992;DHT22;72820;44.838;37.674;2023-12-22T04:57:15;10.79;83.85
78992;DHT22;72820;44.838;37.674;2023-12-22T04:58:17;10.76;83.95
78992;DHT22;72820;44.838;37.674;2023-12-22T04:59:19;10.74;83.99
78992;DHT22;72820;44.838;37.674;2023-12-22T05:00:21;10.73;84.11
78992;DHT22;72820;44.838;37.674;2023-12-22T05:01:22;10.72;84.30
78992;DHT22;72820;44.838;37.674;2023-12-22T05:02:24;10.72;84.30
78992;DHT22;72820;44.838;37.674;2023-12-22T05:03:26;10.72;84.30
78992;DHT22;72820;44.838;37.674;2023-12-22T05:04:28;10.70;84.41
78992;DHT22;72820;44.838;37.674;2023-12-22T05:05:30;10.69;84.06
78992;DHT22;72820;44.838;37.674;2023-12-22T05:06:31;10.66;84.37
78992;DHT22;72820;44.838;37.674;2023-12-22T05:07:33;10.66;84.44
78992;DHT22;72820;44.838;37.674;2023-12-22T05:08:35;10.70;84.42
78992;DHT22;72820;44.838;37.674;2023-12-22T05:09:37;10.70;84.32
78992;DHT22;72820;44.838;37.674;2023-12-22T05:10:45;10.67;84.16
78992;DHT22;72820;44.838;37.674;2023-12-22T05:11:46;10.69;84.19
78992;DHT22;72820;44.838;37.674;2023-12-22T05:12:48;10.67;84.35
78992;DHT22;72820;44.838;37.674;2023-12-22T05:13:50;10.69;84.40
78992;DHT22;72820;44.838;37.674;2023-12-22T05:14:52;10.73;84.21
78992;DHT22;72820;44.838;37.674;2023-12-22T05:15:53;10.70;83.85
78992;DHT22;72820;44.838;37.674;2023-12-22T05:16:56;10.69;83.90
78992;DHT22;72820;44.838;37.674;2023-12-22T05:17:58;10.69;83.96
78992;DHT22;72820;44.838;37.674;2023-12-22T05:19:00;10.69;83.93
78992;DHT22;72820;44.838;37.674;2023-12-22T05:20:01;10.69;83.91
78992;DHT22;72820;44.838;37.674;2023-12-22T05:21:03;10.66;84.00
78992;DHT22;72820;44.838;37.674;2023-12-22T05:22:05;10.69;83.92
78992;DHT22;72820;44.838;37.674;2023-12-22T05:23:06;10.72;84.04
78992;DHT22;72820;44.838;37.674;2023-12-22T05:24:08;10.74;83.73
78992;DHT22;72820;44.838;37.674;2023-12-22T05:25:09;10.73;83.64
78992;DHT22;72820;44.838;37.674;2023-12-22T05:26:18;10.74;83.91
78992;DHT22;72820;44.838;37.674;2023-12-22T05:27:19;10.79;83.88
78992;DHT22;72820;44.838;37.674;2023-12-22T05:28:21;10.83;83.94
78992;DHT22;72820;44.838;37.674;2023-12-22T05:29:23;10.87;83.76
78992;DHT22;72820;44.838;37.674;2023-12-22T05:30:25;10.87;83.62
78992;DHT22;72820;44.838;37.674;2023-12-22T05:31:26;10.87;83.79
78992;DHT22;72820;44.838;37.674;2023-12-22T05:32:28;10.89;83.79
78992;DHT22;72820;44.838;37.674;2023-12-22T05:33:30;10.89;83.51
78992;DHT22;72820;44.838;37.674;2023-12-22T05:34:31;10.89;83.54
78992;DHT22;72820;44.838;37.674;2023-12-22T05:35:33;10.84;83.65
78992;DHT22;72820;44.838;37.674;2023-12-22T05:36:34;10.84;83.73
78992;DHT22;72820;44.838;37.674;2023-12-22T05:37:35;10.86;84.02
78992;DHT22;72820;44.838;37.674;2023-12-22T05:38:38;10.89;84.12
78992;DHT22;72820;44.838;37.674;2023-12-22T05:39:40;10.89;84.13
78992;DHT22;72820;44.838;37.674;2023-12-22T05:40:41;10.89;83.92
78992;DHT22;72820;44.838;37.674;2023-12-22T05:41:42;10.87;83.82
78992;DHT22;72820;44.838;37.674;2023-12-22T05:42:44;10.81;83.83
78992;DHT22;72820;44.838;37.674;2023-12-22T05:43:45;10.79;83.99
78992;DHT22;72820;44.838;37.674;2023-12-22T05:44:47;10.77;84.15
78992;DHT22;72820;44.838;37.674;2023-12-22T05:45:50;10.76;84.30
78992;DHT22;72820;44.838;37.674;2023-12-22T05:46:52;10.74;84.37
78992;DHT22;72820;44.838;37.674;2023-12-22T05:47:53;10.77;84.55
78992;DHT22;72820;44.838;37.674;2023-12-22T05:48:55;10.76;84.59
78992;DHT22;72820;44.838;37.674;2023-12-22T05:50:00;10.76;84.31
78992;DHT22;72820;44.838;37.674;2023-12-22T05:51:01;10.76;84.45
78992;DHT22;72820;44.838;37.674;2023-12-22T05:52:23;10.76;84.63
78992;DHT22;72820;44.838;37.674;2023-12-22T05:53:24;10.74;84.61
78992;DHT22;72820;44.838;37.674;2023-12-22T05:54:26;10.77;84.81
78992;DHT22;72820;44.838;37.674;2023-12-22T05:55:27;10.81;84.62
78992;DHT22;72820;44.838;37.674;2023-12-22T05:56:30;10.87;84.46
78992;DHT22;72820;44.838;37.674;2023-12-22T05:57:32;10.84;84.39
78992;DHT22;72820;44.838;37.674;2023-12-22T05:58:33;10.83;84.59
78992;DHT22;72820;44.838;37.674;2023-12-22T05:59:35;10.84;84.67
78992;DHT22;72820;44.838;37.674;2023-12-22T06:00:36;10.81;84.66
78992;DHT22;72820;44.838;37.674;2023-12-22T06:01:38;10.83;84.86
78992;DHT22;72820;44.838;37.674;2023-12-22T06:02:39;10.83;84.79
78992;DHT22;72820;44.838;37.674;2023-12-22T06:03:41;10.81;84.52
78992;DHT22;72820;44.838;37.674;2023-12-22T06:04:42;10.76;84.46
78992;DHT22;72820;44.838;37.674;2023-12-22T06:05:45;10.69;84.75
78992;DHT22;72820;44.838;37.674;2023-12-22T06:06:46;10.67;85.02
78992;DHT22;72820;44.838;37.674;2023-12-22T06:07:48;10.69;85.06
78992;DHT22;72820;44.838;37.674;2023-12-22T06:08:49;10.66;85.18
78992;DHT22;72820;44.838;37.674;2023-12-22T06:09:51;10.67;85.22
78992;DHT22;72820;44.838;37.674;2023-12-22T06:10:52;10.69;85.07
78992;DHT22;72820;44.838;37.674;2023-12-22T06:11:54;10.65;85.29
78992;DHT22;72820;44.838;37.674;2023-12-22T06:12:56;10.63;85.33
78992;DHT22;72820;44.838;37.674;2023-12-22T06:13:58;10.65;85.37
78992;DHT22;72820;44.838;37.674;2023-12-22T06:15:00;10.67;85.45
78992;DHT22;72820;44.838;37.674;2023-12-22T06:16:02;10.67;85.43
78992;DHT22;72820;44.838;37.674;2023-12-22T06:17:03;10.69;85.37
78992;DHT22;72820;44.838;37.674;2023-12-22T06:18:05;10.72;85.54
78992;DHT22;72820;44.838;37.674;2023-12-22T06:19:06;10.73;85.41
78992;DHT22;72820;44.838;37.674;2023-12-22T06:20:08;10.80;85.41
78992;DHT22;72820;44.838;37.674;2023-12-22T06:21:10;10.86;85.19
78992;DHT22;72820;44.838;37.674;2023-12-22T06:22:11;10.92;85.06
78992;DHT22;72820;44.838;37.674;2023-12-22T06:23:13;10.96;85.07
78992;DHT22;72820;44.838;37.674;2023-12-22T06:24:14;11.04;84.74
78992;DHT22;72820;44.838;37.674;2023-12-22T06:25:17;11.07;84.52
78992;DHT22;72820;44.838;37.674;2023-12-22T06:26:18;11.07;84.37
78992;DHT22;72820;44.838;37.674;2023-12-22T06:27:20;11.08;84.43
78992;DHT22;72820;44.838;37.674;2023-12-22T06:28:21;11.11;84.36